sensor_id;sensor_type;location;lat;lon;timestamp;P1;durP1;ratioP1;P2;durP2;ratioP2
20621;SDS011;10470;42.670;23.354;2023-08-07T00:00:13;1.40;;;1.20;;
20621;SDS011;10470;42.670;23.354;2023-08-07T00:02:41;1.73;;;1.53;;
20621;SDS011;10470;42.670;23.354;2023-08-07T00:05:08;1.47;;;1.37;;
20621;SDS011;10470;42.670;23.354;2023-08-07T00:07:36;1.40;;;1.30;;
20621;SDS011;10470;42.670;23.354;2023-08-07T00:10:03;1.43;;;1.33;;
20621;SDS011;10470;42.670;23.354;2023-08-07T00:12:31;1.37;;;1.27;;
20621;SDS011;10470;42.670;23.354;2023-08-07T00:14:58;1.27;;;1.17;;
20621;SDS011;10470;42.670;23.354;2023-08-07T00:17:25;3.13;;;1.50;;
20621;SDS011;10470;42.670;23.354;2023-08-07T00:19:52;1.50;;;1.40;;
20621;SDS011;10470;42.670;23.354;2023-08-07T00:22:20;2.30;;;1.40;;
20621;SDS011;10470;42.670;23.354;2023-08-07T00:24:46;1.50;;;1.40;;
20621;SDS011;10470;42.670;23.354;2023-08-07T00:27:13;2.87;;;1.30;;
20621;SDS011;10470;42.670;23.354;2023-08-07T00:29:41;1.60;;;1.43;;
20621;SDS011;10470;42.670;23.354;2023-08-07T00:32:09;1.70;;;1.60;;
20621;SDS011;10470;42.670;23.354;2023-08-07T00:34:36;1.60;;;1.50;;
20621;SDS011;10470;42.670;23.354;2023-08-07T00:37:02;1.70;;;1.60;;
20621;SDS011;10470;42.670;23.354;2023-08-07T00:39:29;1.67;;;1.57;;
20621;SDS011;10470;42.670;23.354;2023-08-07T00:41:56;2.20;;;2.10;;
20621;SDS011;10470;42.670;23.354;2023-08-07T00:44:23;2.13;;;2.03;;
20621;SDS011;10470;42.670;23.354;2023-08-07T00:46:51;1.90;;;1.80;;
20621;SDS011;10470;42.670;23.354;2023-08-07T00:49:18;2.00;;;1.90;;
20621;SDS011;10470;42.670;23.354;2023-08-07T00:51:47;2.10;;;2.00;;
20621;SDS011;10470;42.670;23.354;2023-08-07T00:54:17;2.30;;;2.10;;
20621;SDS011;10470;42.670;23.354;2023-08-07T00:56:45;1.90;;;1.80;;
20621;SDS011;10470;42.670;23.354;2023-08-07T00:59:14;2.47;;;2.27;;
20621;SDS011;10470;42.670;23.354;2023-08-07T01:01:42;2.30;;;2.20;;
20621;SDS011;10470;42.670;23.354;2023-08-07T01:04:11;2.50;;;2.30;;
20621;SDS011;10470;42.670;23.354;2023-08-07T01:06:38;2.10;;;1.90;;
20621;SDS011;10470;42.670;23.354;2023-08-07T01:09:07;2.60;;;2.30;;
20621;SDS011;10470;42.670;23.354;2023-08-07T01:11:36;2.50;;;2.30;;
20621;SDS011;10470;42.670;23.354;2023-08-07T01:17:02;2.70;;;2.50;;
20621;SDS011;10470;42.670;23.354;2023-08-07T01:19:42;2.20;;;2.10;;
20621;SDS011;10470;42.670;23.354;2023-08-07T01:22:12;2.50;;;2.30;;
20621;SDS011;10470;42.670;23.354;2023-08-07T01:24:43;3.40;;;2.60;;
20621;SDS011;10470;42.670;23.354;2023-08-07T01:32:37;2.93;;;2.73;;
20621;SDS011;10470;42.670;23.354;2023-08-07T01:35:23;2.97;;;2.53;;
20621;SDS011;10470;42.670;23.354;2023-08-07T01:37:56;3.13;;;2.93;;
20621;SDS011;10470;42.670;23.354;2023-08-07T01:40:25;3.50;;;3.13;;
20621;SDS011;10470;42.670;23.354;2023-08-07T01:42:53;3.37;;;3.17;;
20621;SDS011;10470;42.670;23.354;2023-08-07T01:45:25;3.23;;;3.00;;
20621;SDS011;10470;42.670;23.354;2023-08-07T01:47:54;3.17;;;2.97;;
20621;SDS011;10470;42.670;23.354;2023-08-07T01:50:22;3.50;;;3.20;;
20621;SDS011;10470;42.670;23.354;2023-08-07T01:52:51;3.37;;;3.17;;
20621;SDS011;10470;42.670;23.354;2023-08-07T01:55:19;3.43;;;3.23;;
20621;SDS011;10470;42.670;23.354;2023-08-07T01:57:48;3.30;;;3.10;;
20621;SDS011;10470;42.670;23.354;2023-08-07T02:00:15;3.33;;;3.13;;
20621;SDS011;10470;42.670;23.354;2023-08-07T02:02:42;3.40;;;3.20;;
20621;SDS011;10470;42.670;23.354;2023-08-07T02:05:13;3.80;;;3.60;;
20621;SDS011;10470;42.670;23.354;2023-08-07T02:07:41;3.40;;;3.20;;
20621;SDS011;10470;42.670;23.354;2023-08-07T02:10:09;3.80;;;3.50;;
20621;SDS011;10470;42.670;23.354;2023-08-07T02:12:36;3.87;;;3.60;;
20621;SDS011;10470;42.670;23.354;2023-08-07T02:15:03;3.70;;;3.43;;
20621;SDS011;10470;42.670;23.354;2023-08-07T02:17:32;3.80;;;3.50;;
20621;SDS011;10470;42.670;23.354;2023-08-07T02:20:04;3.60;;;3.27;;
20621;SDS011;10470;42.670;23.354;2023-08-07T02:22:33;3.67;;;3.33;;
20621;SDS011;10470;42.670;23.354;2023-08-07T02:25:00;3.90;;;3.50;;
20621;SDS011;10470;42.670;23.354;2023-08-07T02:27:27;3.67;;;3.43;;
20621;SDS011;10470;42.670;23.354;2023-08-07T02:29:55;3.70;;;3.40;;
20621;SDS011;10470;42.670;23.354;2023-08-07T02:32:23;4.40;;;3.47;;
20621;SDS011;10470;42.670;23.354;2023-08-07T02:34:50;3.33;;;3.13;;
20621;SDS011;10470;42.670;23.354;2023-08-07T02:37:17;3.80;;;3.50;;
20621;SDS011;10470;42.670;23.354;2023-08-07T02:39:45;3.90;;;3.60;;
20621;SDS011;10470;42.670;23.354;2023-08-07T02:42:12;3.87;;;3.57;;
20621;SDS011;10470;42.670;23.354;2023-08-07T02:44:40;4.03;;;3.73;;
20621;SDS011;10470;42.670;23.354;2023-08-07T02:47:07;3.80;;;3.50;;
20621;SDS011;10470;42.670;23.354;2023-08-07T02:49:35;3.90;;;3.60;;
20621;SDS011;10470;42.670;23.354;2023-08-07T02:52:03;4.03;;;3.63;;
20621;SDS011;10470;42.670;23.354;2023-08-07T02:54:30;3.90;;;3.60;;
20621;SDS011;10470;42.670;23.354;2023-08-07T02:56:57;4.20;;;3.83;;
20621;SDS011;10470;42.670;23.354;2023-08-07T02:59:25;4.37;;;4.07;;
20621;SDS011;10470;42.670;23.354;2023-08-07T03:01:52;3.83;;;3.53;;
20621;SDS011;10470;42.670;23.354;2023-08-07T03:04:21;4.00;;;3.70;;
20621;SDS011;10470;42.670;23.354;2023-08-07T03:06:48;4.10;;;3.80;;
20621;SDS011;10470;42.670;23.354;2023-08-07T03:09:16;4.03;;;3.73;;
20621;SDS011;10470;42.670;23.354;2023-08-07T03:11:43;3.97;;;3.67;;
20621;SDS011;10470;42.670;23.354;2023-08-07T03:14:11;4.27;;;3.80;;
20621;SDS011;10470;42.670;23.354;2023-08-07T03:16:38;4.00;;;3.70;;
20621;SDS011;10470;42.670;23.354;2023-08-07T03:19:06;4.30;;;4.00;;
20621;SDS011;10470;42.670;23.354;2023-08-07T03:21:33;3.50;;;3.30;;
20621;SDS011;10470;42.670;23.354;2023-08-07T03:24:01;4.00;;;3.57;;
20621;SDS011;10470;42.670;23.354;2023-08-07T03:26:29;4.53;;;3.80;;
20621;SDS011;10470;42.670;23.354;2023-08-07T03:28:57;4.07;;;3.60;;
20621;SDS011;10470;42.670;23.354;2023-08-07T03:31:25;4.00;;;3.70;;
20621;SDS011;10470;42.670;23.354;2023-08-07T03:33:54;4.03;;;3.73;;
20621;SDS011;10470;42.670;23.354;2023-08-07T03:36:22;4.20;;;3.80;;
20621;SDS011;10470;42.670;23.354;2023-08-07T03:38:50;5.03;;;4.00;;
20621;SDS011;10470;42.670;23.354;2023-08-07T03:41:18;4.53;;;3.87;;
20621;SDS011;10470;42.670;23.354;2023-08-07T03:43:46;4.40;;;4.10;;
20621;SDS011;10470;42.670;23.354;2023-08-07T03:46:13;4.73;;;3.57;;
20621;SDS011;10470;42.670;23.354;2023-08-07T03:48:42;4.00;;;3.70;;
20621;SDS011;10470;42.670;23.354;2023-08-07T03:51:09;3.87;;;3.47;;
20621;SDS011;10470;42.670;23.354;2023-08-07T03:53:37;3.97;;;3.60;;
20621;SDS011;10470;42.670;23.354;2023-08-07T03:56:04;3.97;;;3.67;;
20621;SDS011;10470;42.670;23.354;2023-08-07T03:58:32;4.50;;;4.10;;
20621;SDS011;10470;42.670;23.354;2023-08-07T04:01:00;7.90;;;4.57;;
20621;SDS011;10470;42.670;23.354;2023-08-07T04:03:27;4.73;;;4.30;;
20621;SDS011;10470;42.670;23.354;2023-08-07T04:05:56;4.70;;;4.30;;
20621;SDS011;10470;42.670;23.354;2023-08-07T04:08:24;3.93;;;3.63;;
20621;SDS011;10470;42.670;23.354;2023-08-07T04:11:01;3.90;;;3.60;;
20621;SDS011;10470;42.670;23.354;2023-08-07T04:13:30;4.27;;;3.60;;
20621;SDS011;10470;42.670;23.354;2023-08-07T04:15:58;3.20;;;2.93;;
20621;SDS011;10470;42.670;23.354;2023-08-07T04:18:25;3.90;;;3.60;;
20621;SDS011;10470;42.670;23.354;2023-08-07T04:20:54;4.33;;;3.50;;
20621;SDS011;10470;42.670;23.354;2023-08-07T04:23:23;4.70;;;3.63;;
20621;SDS011;10470;42.670;23.354;2023-08-07T04:25:51;4.00;;;3.70;;
20621;SDS011;10470;42.670;23.354;2023-08-07T04:28:20;4.93;;;4.10;;
20621;SDS011;10470;42.670;23.354;2023-08-07T04:30:49;4.20;;;3.80;;
20621;SDS011;10470;42.670;23.354;2023-08-07T04:33:18;6.90;;;4.23;;
20621;SDS011;10470;42.670;23.354;2023-08-07T04:35:49;4.00;;;3.70;;
20621;SDS011;10470;42.670;23.354;2023-08-07T04:38:16;5.97;;;4.50;;
20621;SDS011;10470;42.670;23.354;2023-08-07T04:40:47;4.23;;;3.93;;
20621;SDS011;10470;42.670;23.354;2023-08-07T04:43:15;3.60;;;3.30;;
20621;SDS011;10470;42.670;23.354;2023-08-07T04:45:45;5.00;;;4.27;;
20621;SDS011;10470;42.670;23.354;2023-08-07T04:48:13;6.47;;;5.07;;
20621;SDS011;10470;42.670;23.354;2023-08-07T04:50:41;4.03;;;3.23;;
20621;SDS011;10470;42.670;23.354;2023-08-07T04:53:09;11.87;;;5.97;;
20621;SDS011;10470;42.670;23.354;2023-08-07T04:55:38;3.70;;;3.40;;
20621;SDS011;10470;42.670;23.354;2023-08-07T04:58:05;7.40;;;5.47;;
20621;SDS011;10470;42.670;23.354;2023-08-07T05:00:32;8.53;;;6.97;;
20621;SDS011;10470;42.670;23.354;2023-08-07T05:03:00;7.43;;;4.93;;
20621;SDS011;10470;42.670;23.354;2023-08-07T05:05:28;5.33;;;3.63;;
20621;SDS011;10470;42.670;23.354;2023-08-07T05:07:57;11.20;;;7.17;;
20621;SDS011;10470;42.670;23.354;2023-08-07T05:10:25;3.80;;;3.40;;
20621;SDS011;10470;42.670;23.354;2023-08-07T05:12:54;5.20;;;3.70;;
20621;SDS011;10470;42.670;23.354;2023-08-07T05:15:24;3.43;;;3.13;;
20621;SDS011;10470;42.670;23.354;2023-08-07T05:17:52;4.87;;;3.90;;
20621;SDS011;10470;42.670;23.354;2023-08-07T05:20:20;4.57;;;4.17;;
20621;SDS011;10470;42.670;23.354;2023-08-07T05:22:49;4.47;;;3.30;;
20621;SDS011;10470;42.670;23.354;2023-08-07T05:25:17;3.03;;;2.83;;
20621;SDS011;10470;42.670;23.354;2023-08-07T05:27:45;3.37;;;3.10;;
20621;SDS011;10470;42.670;23.354;2023-08-07T05:30:13;3.47;;;3.27;;
20621;SDS011;10470;42.670;23.354;2023-08-07T05:32:42;3.23;;;3.03;;
20621;SDS011;10470;42.670;23.354;2023-08-07T05:35:10;4.97;;;2.97;;
20621;SDS011;10470;42.670;23.354;2023-08-07T05:37:38;3.30;;;3.10;;
20621;SDS011;10470;42.670;23.354;2023-08-07T05:40:05;3.07;;;2.73;;
20621;SDS011;10470;42.670;23.354;2023-08-07T05:42:33;2.73;;;2.53;;
20621;SDS011;10470;42.670;23.354;2023-08-07T05:45:02;5.23;;;3.03;;
20621;SDS011;10470;42.670;23.354;2023-08-07T05:47:32;4.03;;;3.00;;
20621;SDS011;10470;42.670;23.354;2023-08-07T05:49:59;7.83;;;3.00;;
20621;SDS011;10470;42.670;23.354;2023-08-07T05:52:26;2.90;;;2.70;;
20621;SDS011;10470;42.670;23.354;2023-08-07T05:54:53;3.37;;;3.10;;
20621;SDS011;10470;42.670;23.354;2023-08-07T05:57:21;3.07;;;2.43;;
20621;SDS011;10470;42.670;23.354;2023-08-07T05:59:49;2.77;;;2.50;;
20621;SDS011;10470;42.670;23.354;2023-08-07T06:02:16;2.60;;;2.43;;
20621;SDS011;10470;42.670;23.354;2023-08-07T06:04:44;2.80;;;2.50;;
20621;SDS011;10470;42.670;23.354;2023-08-07T06:07:11;3.23;;;2.87;;
20621;SDS011;10470;42.670;23.354;2023-08-07T06:09:38;2.97;;;2.77;;
20621;SDS011;10470;42.670;23.354;2023-08-07T06:12:05;2.70;;;2.20;;
20621;SDS011;10470;42.670;23.354;2023-08-07T06:14:33;3.57;;;2.80;;
20621;SDS011;10470;42.670;23.354;2023-08-07T06:17:00;2.80;;;2.60;;
20621;SDS011;10470;42.670;23.354;2023-08-07T06:19:28;2.80;;;2.60;;
20621;SDS011;10470;42.670;23.354;2023-08-07T06:21:55;3.70;;;2.73;;
20621;SDS011;10470;42.670;23.354;2023-08-07T06:24:22;2.63;;;2.40;;
20621;SDS011;10470;42.670;23.354;2023-08-07T06:26:49;2.63;;;2.43;;
20621;SDS011;10470;42.670;23.354;2023-08-07T06:29:16;2.83;;;2.50;;
20621;SDS011;10470;42.670;23.354;2023-08-07T06:31:43;2.27;;;2.10;;
20621;SDS011;10470;42.670;23.354;2023-08-07T06:34:10;3.00;;;2.70;;
20621;SDS011;10470;42.670;23.354;2023-08-07T06:36:37;5.40;;;2.90;;
20621;SDS011;10470;42.670;23.354;2023-08-07T06:39:04;2.60;;;2.40;;
20621;SDS011;10470;42.670;23.354;2023-08-07T06:41:32;2.10;;;2.00;;
20621;SDS011;10470;42.670;23.354;2023-08-07T06:43:58;2.03;;;1.80;;
20621;SDS011;10470;42.670;23.354;2023-08-07T06:46:25;2.20;;;2.10;;
20621;SDS011;10470;42.670;23.354;2023-08-07T06:48:54;3.40;;;1.80;;
20621;SDS011;10470;42.670;23.354;2023-08-07T06:51:21;2.00;;;1.90;;
20621;SDS011;10470;42.670;23.354;2023-08-07T06:53:48;2.33;;;1.60;;
20621;SDS011;10470;42.670;23.354;2023-08-07T06:56:15;2.33;;;1.70;;
20621;SDS011;10470;42.670;23.354;2023-08-07T06:58:42;1.70;;;1.60;;
20621;SDS011;10470;42.670;23.354;2023-08-07T07:01:09;1.63;;;1.53;;
20621;SDS011;10470;42.670;23.354;2023-08-07T07:03:37;1.30;;;1.20;;
20621;SDS011;10470;42.670;23.354;2023-08-07T07:06:04;1.50;;;1.40;;
20621;SDS011;10470;42.670;23.354;2023-08-07T07:08:32;2.20;;;1.70;;
20621;SDS011;10470;42.670;23.354;2023-08-07T07:10:58;1.47;;;1.37;;
20621;SDS011;10470;42.670;23.354;2023-08-07T07:13:26;1.30;;;1.20;;
20621;SDS011;10470;42.670;23.354;2023-08-07T07:15:54;1.50;;;1.40;;
20621;SDS011;10470;42.670;23.354;2023-08-07T07:18:22;1.40;;;1.30;;
20621;SDS011;10470;42.670;23.354;2023-08-07T07:20:56;1.80;;;1.50;;
20621;SDS011;10470;42.670;23.354;2023-08-07T07:23:27;1.57;;;1.47;;
20621;SDS011;10470;42.670;23.354;2023-08-07T07:25:56;1.53;;;1.40;;
20621;SDS011;10470;42.670;23.354;2023-08-07T07:28:25;1.97;;;1.47;;
20621;SDS011;10470;42.670;23.354;2023-08-07T07:30:52;2.00;;;1.63;;
20621;SDS011;10470;42.670;23.354;2023-08-07T07:33:19;1.50;;;1.40;;
20621;SDS011;10470;42.670;23.354;2023-08-07T07:35:47;1.83;;;1.70;;
20621;SDS011;10470;42.670;23.354;2023-08-07T07:38:15;1.87;;;1.60;;
20621;SDS011;10470;42.670;23.354;2023-08-07T07:40:42;2.03;;;1.57;;
20621;SDS011;10470;42.670;23.354;2023-08-07T07:43:10;2.40;;;1.30;;
20621;SDS011;10470;42.670;23.354;2023-08-07T07:45:37;3.33;;;1.60;;
20621;SDS011;10470;42.670;23.354;2023-08-07T07:48:05;1.70;;;1.60;;
20621;SDS011;10470;42.670;23.354;2023-08-07T07:50:36;1.50;;;1.40;;
20621;SDS011;10470;42.670;23.354;2023-08-07T07:53:03;1.63;;;1.50;;
20621;SDS011;10470;42.670;23.354;2023-08-07T07:55:31;1.53;;;1.43;;
20621;SDS011;10470;42.670;23.354;2023-08-07T07:57:59;2.67;;;1.83;;
20621;SDS011;10470;42.670;23.354;2023-08-07T08:00:27;2.17;;;2.07;;
20621;SDS011;10470;42.670;23.354;2023-08-07T08:02:54;1.80;;;1.70;;
20621;SDS011;10470;42.670;23.354;2023-08-07T08:05:22;1.67;;;1.57;;
20621;SDS011;10470;42.670;23.354;2023-08-07T08:07:50;1.50;;;1.40;;
20621;SDS011;10470;42.670;23.354;2023-08-07T08:10:17;1.93;;;1.70;;
20621;SDS011;10470;42.670;23.354;2023-08-07T08:12:45;1.77;;;1.67;;
20621;SDS011;10470;42.670;23.354;2023-08-07T08:15:13;1.70;;;1.60;;
20621;SDS011;10470;42.670;23.354;2023-08-07T08:17:41;1.80;;;1.70;;
20621;SDS011;10470;42.670;23.354;2023-08-07T08:20:09;2.03;;;1.77;;
20621;SDS011;10470;42.670;23.354;2023-08-07T08:22:37;2.10;;;1.60;;
20621;SDS011;10470;42.670;23.354;2023-08-07T08:25:04;1.70;;;1.60;;
20621;SDS011;10470;42.670;23.354;2023-08-07T08:27:34;1.60;;;1.50;;
20621;SDS011;10470;42.670;23.354;2023-08-07T08:30:02;2.13;;;1.50;;
20621;SDS011;10470;42.670;23.354;2023-08-07T08:32:31;1.90;;;1.80;;
20621;SDS011;10470;42.670;23.354;2023-08-07T08:34:59;1.50;;;1.40;;
20621;SDS011;10470;42.670;23.354;2023-08-07T08:37:26;1.40;;;1.30;;
20621;SDS011;10470;42.670;23.354;2023-08-07T08:39:56;3.77;;;2.17;;
20621;SDS011;10470;42.670;23.354;2023-08-07T08:42:23;1.50;;;1.27;;
20621;SDS011;10470;42.670;23.354;2023-08-07T08:44:52;1.40;;;1.30;;
20621;SDS011;10470;42.670;23.354;2023-08-07T08:47:24;1.70;;;1.47;;
20621;SDS011;10470;42.670;23.354;2023-08-07T08:50:03;2.47;;;1.37;;
20621;SDS011;10470;42.670;23.354;2023-08-07T08:52:34;1.87;;;1.10;;
20621;SDS011;10470;42.670;23.354;2023-08-07T08:55:03;1.30;;;1.20;;
20621;SDS011;10470;42.670;23.354;2023-08-07T08:57:31;1.47;;;1.37;;
20621;SDS011;10470;42.670;23.354;2023-08-07T09:00:01;1.50;;;1.40;;
20621;SDS011;10470;42.670;23.354;2023-08-07T09:02:34;1.83;;;1.40;;
20621;SDS011;10470;42.670;23.354;2023-08-07T09:05:02;1.40;;;1.30;;
20621;SDS011;10470;42.670;23.354;2023-08-07T09:07:31;1.50;;;1.40;;
20621;SDS011;10470;42.670;23.354;2023-08-07T09:09:59;1.70;;;1.13;;
20621;SDS011;10470;42.670;23.354;2023-08-07T09:12:32;1.47;;;1.30;;
20621;SDS011;10470;42.670;23.354;2023-08-07T09:15:02;4.27;;;1.50;;
20621;SDS011;10470;42.670;23.354;2023-08-07T09:17:33;2.83;;;1.30;;
20621;SDS011;10470;42.670;23.354;2023-08-07T09:20:07;2.30;;;1.80;;
20621;SDS011;10470;42.670;23.354;2023-08-07T09:22:40;2.43;;;1.80;;
20621;SDS011;10470;42.670;23.354;2023-08-07T09:25:08;1.63;;;1.53;;
20621;SDS011;10470;42.670;23.354;2023-08-07T09:27:37;1.77;;;1.40;;
20621;SDS011;10470;42.670;23.354;2023-08-07T09:30:06;1.70;;;1.60;;
20621;SDS011;10470;42.670;23.354;2023-08-07T09:32:36;1.83;;;1.60;;
20621;SDS011;10470;42.670;23.354;2023-08-07T09:35:03;2.03;;;1.63;;
20621;SDS011;10470;42.670;23.354;2023-08-07T09:37:31;2.00;;;1.37;;
20621;SDS011;10470;42.670;23.354;2023-08-07T09:40:01;1.40;;;1.30;;
20621;SDS011;10470;42.670;23.354;2023-08-07T09:42:31;2.03;;;1.40;;
20621;SDS011;10470;42.670;23.354;2023-08-07T09:45:02;2.70;;;1.50;;
20621;SDS011;10470;42.670;23.354;2023-08-07T09:47:46;5.33;;;2.30;;
20621;SDS011;10470;42.670;23.354;2023-08-07T09:50:17;2.63;;;1.90;;
20621;SDS011;10470;42.670;23.354;2023-08-07T09:52:48;2.83;;;1.60;;
20621;SDS011;10470;42.670;23.354;2023-08-07T09:55:16;2.70;;;1.60;;
20621;SDS011;10470;42.670;23.354;2023-08-07T09:57:43;1.40;;;1.30;;
20621;SDS011;10470;42.670;23.354;2023-08-07T10:00:14;1.60;;;1.50;;
20621;SDS011;10470;42.670;23.354;2023-08-07T10:02:43;1.50;;;1.40;;
20621;SDS011;10470;42.670;23.354;2023-08-07T10:05:11;1.50;;;1.40;;
20621;SDS011;10470;42.670;23.354;2023-08-07T10:07:40;3.50;;;1.20;;
20621;SDS011;10470;42.670;23.354;2023-08-07T10:10:08;1.40;;;1.30;;
20621;SDS011;10470;42.670;23.354;2023-08-07T10:12:38;1.30;;;1.20;;
20621;SDS011;10470;42.670;23.354;2023-08-07T10:15:07;1.53;;;1.40;;
20621;SDS011;10470;42.670;23.354;2023-08-07T10:17:35;2.00;;;1.43;;
20621;SDS011;10470;42.670;23.354;2023-08-07T10:20:04;1.63;;;1.40;;
20621;SDS011;10470;42.670;23.354;2023-08-07T10:22:34;1.63;;;1.40;;
20621;SDS011;10470;42.670;23.354;2023-08-07T10:25:04;1.50;;;1.40;;
20621;SDS011;10470;42.670;23.354;2023-08-07T10:27:34;1.83;;;1.73;;
20621;SDS011;10470;42.670;23.354;2023-08-07T10:30:06;2.80;;;1.50;;
20621;SDS011;10470;42.670;23.354;2023-08-07T10:32:38;1.70;;;1.60;;
20621;SDS011;10470;42.670;23.354;2023-08-07T10:35:07;2.07;;;1.43;;
20621;SDS011;10470;42.670;23.354;2023-08-07T10:37:44;2.43;;;1.47;;
20621;SDS011;10470;42.670;23.354;2023-08-07T10:40:11;2.20;;;1.70;;
20621;SDS011;10470;42.670;23.354;2023-08-07T10:45:27;1.43;;;1.33;;
20621;SDS011;10470;42.670;23.354;2023-08-07T10:48:17;1.50;;;1.40;;
20621;SDS011;10470;42.670;23.354;2023-08-07T10:53:20;1.30;;;1.20;;
20621;SDS011;10470;42.670;23.354;2023-08-07T10:55:55;1.37;;;1.27;;
20621;SDS011;10470;42.670;23.354;2023-08-07T10:58:31;2.40;;;1.50;;
20621;SDS011;10470;42.670;23.354;2023-08-07T11:03:52;2.23;;;1.50;;
20621;SDS011;10470;42.670;23.354;2023-08-07T11:06:31;3.80;;;1.43;;
20621;SDS011;10470;42.670;23.354;2023-08-07T11:09:01;1.63;;;1.20;;
20621;SDS011;10470;42.670;23.354;2023-08-07T11:11:36;1.30;;;1.20;;
20621;SDS011;10470;42.670;23.354;2023-08-07T11:14:06;1.10;;;1.00;;
20621;SDS011;10470;42.670;23.354;2023-08-07T11:16:35;2.13;;;1.30;;
20621;SDS011;10470;42.670;23.354;2023-08-07T11:19:03;1.97;;;1.27;;
20621;SDS011;10470;42.670;23.354;2023-08-07T11:21:31;2.00;;;1.20;;
20621;SDS011;10470;42.670;23.354;2023-08-07T11:23:59;1.57;;;1.40;;
20621;SDS011;10470;42.670;23.354;2023-08-07T11:26:28;1.93;;;1.30;;
20621;SDS011;10470;42.670;23.354;2023-08-07T11:28:56;2.37;;;1.30;;
20621;SDS011;10470;42.670;23.354;2023-08-07T11:31:24;1.50;;;1.20;;
20621;SDS011;10470;42.670;23.354;2023-08-07T11:33:53;1.67;;;1.20;;
20621;SDS011;10470;42.670;23.354;2023-08-07T11:36:23;1.67;;;1.33;;
20621;SDS011;10470;42.670;23.354;2023-08-07T11:38:52;2.17;;;1.30;;
20621;SDS011;10470;42.670;23.354;2023-08-07T11:41:19;1.43;;;1.30;;
20621;SDS011;10470;42.670;23.354;2023-08-07T11:43:46;1.33;;;1.23;;
20621;SDS011;10470;42.670;23.354;2023-08-07T11:46:14;1.53;;;1.30;;
20621;SDS011;10470;42.670;23.354;2023-08-07T11:48:43;1.57;;;1.47;;
20621;SDS011;10470;42.670;23.354;2023-08-07T11:51:10;2.00;;;1.37;;
20621;SDS011;10470;42.670;23.354;2023-08-07T11:53:39;1.43;;;1.33;;
20621;SDS011;10470;42.670;23.354;2023-08-07T11:56:10;1.30;;;1.20;;
20621;SDS011;10470;42.670;23.354;2023-08-07T11:58:45;1.93;;;1.27;;
20621;SDS011;10470;42.670;23.354;2023-08-07T12:01:16;1.30;;;1.20;;
20621;SDS011;10470;42.670;23.354;2023-08-07T12:03:52;1.63;;;1.30;;
20621;SDS011;10470;42.670;23.354;2023-08-07T12:06:21;3.15;;;1.27;;
20621;SDS011;10470;42.670;23.354;2023-08-07T12:08:56;2.83;;;1.10;;
20621;SDS011;10470;42.670;23.354;2023-08-07T12:11:24;2.33;;;1.30;;
20621;SDS011;10470;42.670;23.354;2023-08-07T12:13:52;2.97;;;1.30;;
20621;SDS011;10470;42.670;23.354;2023-08-07T12:16:20;1.70;;;1.20;;
20621;SDS011;10470;42.670;23.354;2023-08-07T12:18:48;3.58;;;1.20;;
20621;SDS011;10470;42.670;23.354;2023-08-07T12:21:17;1.33;;;1.20;;
20621;SDS011;10470;42.670;23.354;2023-08-07T12:23:47;2.95;;;1.23;;
20621;SDS011;10470;42.670;23.354;2023-08-07T12:26:17;3.42;;;1.30;;
20621;SDS011;10470;42.670;23.354;2023-08-07T12:28:45;1.10;;;1.10;;
20621;SDS011;10470;42.670;23.354;2023-08-07T12:31:13;1.42;;;1.20;;
20621;SDS011;10470;42.670;23.354;2023-08-07T12:33:41;1.63;;;1.33;;
20621;SDS011;10470;42.670;23.354;2023-08-07T12:36:08;2.17;;;1.20;;
20621;SDS011;10470;42.670;23.354;2023-08-07T12:38:37;1.85;;;1.58;;
20621;SDS011;10470;42.670;23.354;2023-08-07T12:41:04;1.92;;;1.40;;
20621;SDS011;10470;42.670;23.354;2023-08-07T12:43:31;2.55;;;1.20;;
20621;SDS011;10470;42.670;23.354;2023-08-07T12:45:59;1.70;;;1.52;;
20621;SDS011;10470;42.670;23.354;2023-08-07T12:48:26;2.17;;;1.63;;
20621;SDS011;10470;42.670;23.354;2023-08-07T12:50:55;1.37;;;1.27;;
20621;SDS011;10470;42.670;23.354;2023-08-07T12:53:23;1.50;;;1.40;;
20621;SDS011;10470;42.670;23.354;2023-08-07T12:55:50;1.33;;;1.23;;
20621;SDS011;10470;42.670;23.354;2023-08-07T12:58:18;1.52;;;1.42;;
20621;SDS011;10470;42.670;23.354;2023-08-07T13:00:49;1.97;;;1.40;;
20621;SDS011;10470;42.670;23.354;2023-08-07T13:03:17;2.00;;;1.20;;
20621;SDS011;10470;42.670;23.354;2023-08-07T13:05:44;2.03;;;1.50;;
20621;SDS011;10470;42.670;23.354;2023-08-07T13:08:12;2.87;;;1.67;;
20621;SDS011;10470;42.670;23.354;2023-08-07T13:10:40;3.43;;;1.40;;
20621;SDS011;10470;42.670;23.354;2023-08-07T13:13:08;1.90;;;1.50;;
20621;SDS011;10470;42.670;23.354;2023-08-07T13:15:36;2.00;;;1.73;;
20621;SDS011;10470;42.670;23.354;2023-08-07T13:18:03;1.63;;;1.53;;
20621;SDS011;10470;42.670;23.354;2023-08-07T13:20:30;1.60;;;1.50;;
20621;SDS011;10470;42.670;23.354;2023-08-07T13:23:01;1.60;;;1.50;;
20621;SDS011;10470;42.670;23.354;2023-08-07T13:25:30;3.53;;;1.73;;
20621;SDS011;10470;42.670;23.354;2023-08-07T13:27:59;5.23;;;1.67;;
20621;SDS011;10470;42.670;23.354;2023-08-07T13:30:26;1.77;;;1.67;;
20621;SDS011;10470;42.670;23.354;2023-08-07T13:32:56;2.77;;;1.73;;
20621;SDS011;10470;42.670;23.354;2023-08-07T13:35:24;1.73;;;1.63;;
20621;SDS011;10470;42.670;23.354;2023-08-07T13:37:52;1.60;;;1.50;;
20621;SDS011;10470;42.670;23.354;2023-08-07T13:40:20;2.10;;;1.50;;
20621;SDS011;10470;42.670;23.354;2023-08-07T13:42:48;1.93;;;1.50;;
20621;SDS011;10470;42.670;23.354;2023-08-07T13:45:16;1.57;;;1.47;;
20621;SDS011;10470;42.670;23.354;2023-08-07T13:47:44;1.77;;;1.27;;
20621;SDS011;10470;42.670;23.354;2023-08-07T13:50:13;3.00;;;1.60;;
20621;SDS011;10470;42.670;23.354;2023-08-07T13:52:41;1.60;;;1.50;;
20621;SDS011;10470;42.670;23.354;2023-08-07T13:55:07;1.87;;;1.33;;
20621;SDS011;10470;42.670;23.354;2023-08-07T13:57:35;2.30;;;1.30;;
20621;SDS011;10470;42.670;23.354;2023-08-07T14:00:04;1.87;;;1.30;;
20621;SDS011;10470;42.670;23.354;2023-08-07T14:02:32;3.50;;;1.37;;
20621;SDS011;10470;42.670;23.354;2023-08-07T14:05:01;2.93;;;1.33;;
20621;SDS011;10470;42.670;23.354;2023-08-07T14:07:29;3.07;;;1.60;;
20621;SDS011;10470;42.670;23.354;2023-08-07T14:09:57;1.60;;;1.50;;
20621;SDS011;10470;42.670;23.354;2023-08-07T14:12:25;1.50;;;1.40;;
20621;SDS011;10470;42.670;23.354;2023-08-07T14:14:53;1.67;;;1.57;;
20621;SDS011;10470;42.670;23.354;2023-08-07T14:17:21;1.77;;;1.63;;
20621;SDS011;10470;42.670;23.354;2023-08-07T14:19:49;2.03;;;1.57;;
20621;SDS011;10470;42.670;23.354;2023-08-07T14:22:17;2.63;;;1.60;;
20621;SDS011;10470;42.670;23.354;2023-08-07T14:24:44;2.10;;;1.43;;
20621;SDS011;10470;42.670;23.354;2023-08-07T14:27:13;1.60;;;1.50;;
20621;SDS011;10470;42.670;23.354;2023-08-07T14:29:41;2.40;;;1.40;;
20621;SDS011;10470;42.670;23.354;2023-08-07T14:32:07;1.60;;;1.50;;
20621;SDS011;10470;42.670;23.354;2023-08-07T14:34:35;7.77;;;2.17;;
20621;SDS011;10470;42.670;23.354;2023-08-07T14:37:04;1.80;;;1.70;;
20621;SDS011;10470;42.670;23.354;2023-08-07T14:39:32;2.20;;;1.57;;
20621;SDS011;10470;42.670;23.354;2023-08-07T14:42:00;3.03;;;2.00;;
20621;SDS011;10470;42.670;23.354;2023-08-07T14:44:28;2.03;;;1.80;;
20621;SDS011;10470;42.670;23.354;2023-08-07T14:46:56;4.77;;;1.57;;
20621;SDS011;10470;42.670;23.354;2023-08-07T14:49:25;1.77;;;1.50;;
20621;SDS011;10470;42.670;23.354;2023-08-07T14:51:53;1.90;;;1.50;;
20621;SDS011;10470;42.670;23.354;2023-08-07T14:54:21;2.63;;;1.60;;
20621;SDS011;10470;42.670;23.354;2023-08-07T14:56:50;1.90;;;1.80;;